createdAt,value
2023-04-18T00:00:45.623Z,99109.28
2023-04-18T00:03:16.515Z,99108.44
2023-04-18T00:05:47.857Z,99116.53
2023-04-18T00:08:16.723Z,99132.38
2023-04-18T00:10:44.857Z,99132.63
2023-04-18T00:13:13.595Z,99139.59
2023-04-18T00:15:44.788Z,99144.28
2023-04-18T00:18:17.788Z,99153.22
2023-04-18T00:20:46.854Z,99154.66
2023-04-18T00:23:15.464Z,99159.16
2023-04-18T00:25:43.662Z,99165.75
2023-04-18T00:28:12.001Z,99169.88
2023-04-18T00:30:40.660Z,99179.22
2023-04-18T00:33:09.446Z,99177.16
2023-04-18T00:35:39.111Z,99168.50
2023-04-18T00:38:09.085Z,99173.66
2023-04-18T00:40:38.324Z,99182.00
2023-04-18T00:43:09.482Z,99187.06
2023-04-18T00:45:41.050Z,99206.94
2023-04-18T00:48:11.127Z,99214.31
2023-04-18T00:50:41.124Z,99214.47
2023-04-18T00:53:17.541Z,99212.34
2023-04-18T00:55:51.327Z,99227.94
2023-04-18T00:58:19.974Z,99227.66
2023-04-18T01:00:49.986Z,99226.25
2023-04-18T01:03:19.143Z,99223.13
2023-04-18T01:05:48.891Z,99225.31
2023-04-18T01:08:20.194Z,99223.94
2023-04-18T01:10:49.972Z,99222.81
2023-04-18T01:13:22.247Z,99216.38
2023-04-18T01:15:55.014Z,99231.69
2023-04-18T01:18:25.504Z,99231.81
2023-04-18T01:20:57.536Z,99249.78
2023-04-18T01:23:27.468Z,99252.53
2023-04-18T01:25:57.362Z,99245.41
2023-04-18T01:28:29.162Z,99237.59
2023-04-18T01:30:59.083Z,99238.66
2023-04-18T01:33:28.751Z,99244.41
2023-04-18T01:35:57.556Z,99247.94
2023-04-18T01:38:26.523Z,99250.34
2023-04-18T01:40:55.714Z,99247.91
2023-04-18T01:43:24.304Z,99241.69
2023-04-18T01:45:53.367Z,99246.13
2023-04-18T01:48:22.758Z,99248.66
2023-04-18T01:50:52.418Z,99255.19
2023-04-18T01:53:22.423Z,99244.47
2023-04-18T01:55:51.608Z,99245.41
2023-04-18T01:58:24.415Z,99241.47
2023-04-18T02:00:54.639Z,99248.66
2023-04-18T02:03:24.189Z,99238.31
2023-04-18T02:05:54.131Z,99236.56
2023-04-18T02:08:22.956Z,99251.34
2023-04-18T02:10:51.967Z,99246.78
2023-04-18T02:13:22.101Z,99259.75
2023-04-18T02:15:51.625Z,99258.34
2023-04-18T02:18:20.796Z,99256.63
2023-04-18T02:20:49.449Z,99257.56
2023-04-18T02:23:19.965Z,99269.13
2023-04-18T02:25:50.235Z,99277.63
2023-04-18T02:28:19.954Z,99275.06
2023-04-18T02:30:48.616Z,99274.84
2023-04-18T02:33:17.726Z,99289.38
2023-04-18T02:35:46.972Z,99284.81
2023-04-18T02:38:20.292Z,99266.88
2023-04-18T02:40:53.817Z,99271.53
2023-04-18T02:43:22.380Z,99256.34
2023-04-18T02:45:50.947Z,99271.94
2023-04-18T02:48:20.137Z,99262.09
2023-04-18T02:50:49.406Z,99264.44
2023-04-18T02:53:18.322Z,99271.38
2023-04-18T02:55:57.418Z,99265.28
2023-04-18T02:58:39.770Z,99263.41
2023-04-18T03:01:37.874Z,99261.03
2023-04-18T03:04:13.608Z,99272.53
2023-04-18T03:06:50.694Z,99268.47
2023-04-18T03:09:20.562Z,99280.66
2023-04-18T03:11:56.479Z,99275.50
2023-04-18T03:14:28.890Z,99276.06
2023-04-18T03:16:58.210Z,99287.88
2023-04-18T03:19:32.738Z,99287.22
2023-04-18T03:22:08.336Z,99291.78
2023-04-18T03:24:41.907Z,99266.00
2023-04-18T03:27:14.753Z,99269.63
2023-04-18T03:29:46.208Z,99268.25
2023-04-18T03:32:17.926Z,99268.69
2023-04-18T03:34:46.421Z,99273.50
2023-04-18T03:37:16.137Z,99276.38
2023-04-18T03:39:49.988Z,99277.06
2023-04-18T03:42:20.020Z,99270.69
2023-04-18T03:44:48.610Z,99269.03
2023-04-18T03:47:17.780Z,99272.78
2023-04-18T03:49:50.601Z,99274.78
2023-04-18T03:52:21.615Z,99273.78
2023-04-18T03:54:50.340Z,99265.09
2023-04-18T03:57:22.642Z,99264.19
2023-04-18T03:59:51.838Z,99265.44
2023-04-18T04:02:21.676Z,99260.41
2023-04-18T04:04:52.681Z,99281.44
2023-04-18T04:07:22.554Z,99275.03
2023-04-18T04:09:52.390Z,99294.00
2023-04-18T04:12:21.640Z,99282.97
2023-04-18T04:14:50.621Z,99288.78
2023-04-18T04:17:19.637Z,99295.03
2023-04-18T04:19:51.932Z,99300.38
2023-04-18T04:22:22.495Z,99294.31
2023-04-18T04:24:52.441Z,99303.31
2023-04-18T04:27:29.762Z,99291.53
2023-04-18T04:29:59.439Z,99296.28
2023-04-18T04:32:30.012Z,99286.94
2023-04-18T04:34:59.936Z,99291.63
2023-04-18T04:37:30.673Z,99288.25
2023-04-18T04:40:09.827Z,99290.72
2023-04-18T04:43:00.978Z,99281.25
2023-04-18T04:45:37.189Z,99287.91
2023-04-18T04:48:06.590Z,99296.22
2023-04-18T04:50:38.548Z,99297.75
2023-04-18T04:53:08.636Z,99299.22
2023-04-18T04:55:39.450Z,99303.97
2023-04-18T04:58:10.290Z,99303.91
2023-04-18T05:01:00.500Z,99315.75
2023-04-18T05:03:29.913Z,99310.97
2023-04-18T05:05:59.583Z,99313.88
2023-04-18T05:08:29.057Z,99302.75
2023-04-18T05:11:01.009Z,99308.16
2023-04-18T05:13:30.517Z,99300.88
2023-04-18T05:16:00.773Z,99299.63
2023-04-18T05:18:30.097Z,99303.22
2023-04-18T05:20:58.875Z,99302.09
2023-04-18T05:23:28.496Z,99300.91
2023-04-18T05:25:57.488Z,99299.25
2023-04-18T05:28:29.379Z,99305.53
2023-04-18T05:31:01.927Z,99304.22
2023-04-18T05:33:32.762Z,99294.47
2023-04-18T05:36:02.331Z,99282.16
2023-04-18T05:38:31.865Z,99283.34
2023-04-18T05:41:01.560Z,99282.16
2023-04-18T05:43:31.045Z,99282.84
2023-04-18T05:46:00.992Z,99279.72
2023-04-18T05:48:31.054Z,99278.88
2023-04-18T05:51:01.424Z,99279.84
2023-04-18T05:53:31.323Z,99273.69
2023-04-18T05:56:01.603Z,99284.97
2023-04-18T05:58:32.001Z,99281.94
2023-04-18T06:01:01.490Z,99283.44
2023-04-18T06:03:30.894Z,99284.94
2023-04-18T06:06:01.426Z,99285.72
2023-04-18T06:08:30.619Z,99278.56
2023-04-18T06:11:00.936Z,99278.66
2023-04-18T06:13:30.764Z,99282.78
2023-04-18T06:16:02.173Z,99283.88
2023-04-18T06:18:32.251Z,99288.69
2023-04-18T06:21:01.820Z,99276.69
2023-04-18T06:23:31.056Z,99272.34
2023-04-18T06:26:01.328Z,99265.91
2023-04-18T06:28:30.951Z,99261.63
2023-04-18T06:31:01.390Z,99258.94
2023-04-18T06:33:32.289Z,99263.44
2023-04-18T06:36:02.379Z,99267.88
2023-04-18T06:38:31.383Z,99274.81
2023-04-18T06:41:01.663Z,99259.38
2023-04-18T06:43:31.604Z,99266.31
2023-04-18T06:46:01.848Z,99264.88
2023-04-18T06:48:32.480Z,99260.75
2023-04-18T06:51:01.706Z,99265.81
2023-04-18T06:53:30.816Z,99267.91
2023-04-18T06:56:02.038Z,99261.72
2023-04-18T06:58:31.608Z,99263.22
2023-04-18T07:01:01.376Z,99256.44
2023-04-18T07:03:32.425Z,99252.84
2023-04-18T07:06:01.903Z,99251.44
2023-04-18T07:08:31.226Z,99254.91
2023-04-18T07:11:00.707Z,99245.38
2023-04-18T07:13:31.689Z,99242.53
2023-04-18T07:16:02.277Z,99244.41
2023-04-18T07:18:37.970Z,99246.06
2023-04-18T07:21:10.254Z,99239.88
2023-04-18T07:23:38.659Z,99242.31
2023-04-18T07:26:10.127Z,99246.06
2023-04-18T07:28:39.358Z,99241.25
2023-04-18T07:31:12.271Z,99232.16
2023-04-18T07:33:41.215Z,99219.75
2023-04-18T07:36:10.401Z,99216.06
2023-04-18T07:38:40.660Z,99216.03
2023-04-18T07:41:09.660Z,99210.06
2023-04-18T07:43:39.815Z,99221.97
2023-04-18T07:46:08.958Z,99228.25
2023-04-18T07:48:37.895Z,99228.31
2023-04-18T07:51:06.655Z,99226.13
2023-04-18T07:53:36.245Z,99226.19
2023-04-18T07:56:04.875Z,99226.47
2023-04-18T07:58:37.762Z,99224.91
2023-04-18T08:01:07.862Z,99230.38
2023-04-18T08:03:37.915Z,99229.56
2023-04-18T08:06:07.168Z,99241.78
2023-04-18T08:08:36.957Z,99238.47
2023-04-18T08:11:06.193Z,99249.69
2023-04-18T08:13:34.868Z,99249.47
2023-04-18T08:16:04.442Z,99254.56
2023-04-18T08:18:32.942Z,99259.84
2023-04-18T08:21:09.048Z,99257.59
2023-04-18T08:23:37.793Z,99271.00
2023-04-18T08:26:06.488Z,99262.97
2023-04-18T08:28:36.489Z,99257.84
2023-04-18T08:31:05.411Z,99265.88
2023-04-18T08:33:34.139Z,99259.78
2023-04-18T08:36:03.215Z,99263.09
2023-04-18T08:38:32.350Z,99260.50
2023-04-18T08:41:02.607Z,99265.34
2023-04-18T08:43:32.228Z,99253.69
2023-04-18T08:46:02.273Z,99257.47
2023-04-18T08:48:32.458Z,99254.19
2023-04-18T08:51:02.760Z,99258.31
2023-04-18T08:53:34.843Z,99253.13
2023-04-18T08:56:06.000Z,99255.47
2023-04-18T08:58:35.450Z,99253.88
2023-04-18T09:01:04.788Z,99252.66
2023-04-18T09:03:53.148Z,99246.78
2023-04-18T09:06:22.767Z,99233.53
2023-04-18T09:09:04.896Z,99235.72
2023-04-18T09:11:34.942Z,99235.25
2023-04-18T09:14:04.436Z,99232.41
2023-04-18T09:16:50.960Z,99226.69
2023-04-18T09:19:20.569Z,99232.28
2023-04-18T09:22:00.759Z,99223.97
2023-04-18T09:24:32.929Z,99228.41
2023-04-18T09:27:02.193Z,99232.31
2023-04-18T09:29:56.651Z,99227.00
2023-04-18T09:32:31.246Z,99210.19
2023-04-18T09:35:06.144Z,99224.06
2023-04-18T09:37:36.463Z,99223.50
2023-04-18T09:40:18.537Z,99213.50
2023-04-18T09:42:49.137Z,99216.16
2023-04-18T09:45:18.758Z,99226.16
2023-04-18T09:47:47.717Z,99226.59
2023-04-18T09:50:21.739Z,99233.59
2023-04-18T09:52:50.511Z,99223.53
2023-04-18T09:55:20.745Z,99227.09
2023-04-18T09:57:52.123Z,99218.94
2023-04-18T10:00:25.810Z,99224.09
2023-04-18T10:03:18.599Z,99219.31
2023-04-18T10:05:49.800Z,99217.59
2023-04-18T10:08:20.462Z,99223.44
2023-04-18T10:10:49.433Z,99218.09
2023-04-18T10:13:19.677Z,99222.09
2023-04-18T10:15:53.640Z,99225.00
2023-04-18T10:18:26.426Z,99231.75
2023-04-18T10:21:07.281Z,99227.00
2023-04-18T10:23:40.950Z,99235.47
2023-04-18T10:26:11.900Z,99235.22
2023-04-18T10:29:01.803Z,99231.66
2023-04-18T10:31:40.919Z,99242.25
2023-04-18T10:34:10.007Z,99238.66
2023-04-18T10:37:05.988Z,99238.09
2023-04-18T10:40:08.936Z,99241.41
2023-04-18T10:42:50.434Z,99244.59
2023-04-18T10:45:23.247Z,99246.69
2023-04-18T10:48:12.566Z,99250.59
2023-04-18T10:51:15.366Z,99253.91
2023-04-18T10:53:53.558Z,99251.44
2023-04-18T10:56:22.392Z,99260.06
2023-04-18T10:58:52.631Z,99250.06
2023-04-18T11:01:34.029Z,99256.91
2023-04-18T11:04:11.500Z,99270.53
2023-04-18T11:06:57.055Z,99267.03
2023-04-18T11:09:26.835Z,99273.81
2023-04-18T11:12:11.385Z,99263.44
2023-04-18T11:14:44.828Z,99273.06
2023-04-18T11:17:22.034Z,99278.28
2023-04-18T11:19:52.727Z,99279.41
2023-04-18T11:22:21.763Z,99294.09
2023-04-18T11:24:50.608Z,99289.34
2023-04-18T11:27:19.941Z,99291.94
2023-04-18T11:29:54.529Z,99286.69
2023-04-18T11:32:25.206Z,99283.16
2023-04-18T11:34:56.610Z,99290.34
2023-04-18T11:37:25.542Z,99285.50
2023-04-18T11:39:54.900Z,99296.97
2023-04-18T11:42:31.730Z,99290.63
2023-04-18T11:45:01.907Z,99296.44
2023-04-18T11:47:34.954Z,99306.38
2023-04-18T11:50:07.536Z,99308.31
2023-04-18T11:52:38.508Z,99311.59
2023-04-18T11:55:21.799Z,99310.19
2023-04-18T11:57:59.002Z,99320.41
2023-04-18T12:00:40.457Z,99317.47
2023-04-18T12:03:16.785Z,99314.13
2023-04-18T12:05:46.786Z,99320.56
2023-04-18T12:08:22.515Z,99324.13
2023-04-18T12:10:52.248Z,99322.06
2023-04-18T12:13:41.862Z,99332.09
2023-04-18T12:16:10.458Z,99327.91
2023-04-18T12:18:40.150Z,99333.25
2023-04-18T12:21:09.645Z,99332.50
2023-04-18T12:23:43.319Z,99332.44
2023-04-18T12:26:23.402Z,99335.28
2023-04-18T12:28:56.818Z,99333.63
2023-04-18T12:31:25.728Z,99333.16
2023-04-18T12:33:55.020Z,99335.84
2023-04-18T12:36:24.734Z,99330.59
2023-04-18T12:38:54.055Z,99343.25
2023-04-18T12:41:22.799Z,99335.91
2023-04-18T12:43:53.045Z,99332.28
2023-04-18T12:46:22.129Z,99327.47
2023-04-18T12:48:50.760Z,99338.34
2023-04-18T12:51:21.116Z,99323.81
2023-04-18T12:53:50.374Z,99319.72
2023-04-18T12:56:19.269Z,99319.72
2023-04-18T12:58:48.941Z,99324.06
2023-04-18T13:01:17.693Z,99322.53
2023-04-18T13:03:53.418Z,99318.41
2023-04-18T13:06:30.281Z,99318.63
2023-04-18T13:09:00.892Z,99318.41
2023-04-18T13:11:31.726Z,99310.13
2023-04-18T13:14:01.671Z,99317.50
2023-04-18T13:16:32.407Z,99321.22
2023-04-18T13:19:02.064Z,99304.25
2023-04-18T13:21:32.291Z,99304.72
2023-04-18T13:24:02.106Z,99305.38
2023-04-18T13:26:36.718Z,99313.47
2023-04-18T13:29:06.934Z,99305.78
2023-04-18T13:31:36.730Z,99303.84
2023-04-18T13:34:05.779Z,99301.03
2023-04-18T13:36:36.048Z,99303.44
2023-04-18T13:39:08.433Z,99304.25
2023-04-18T13:41:37.505Z,99301.59
2023-04-18T13:44:06.728Z,99299.13
2023-04-18T13:46:36.693Z,99303.78
2023-04-18T13:49:05.683Z,99303.06
2023-04-18T13:51:34.829Z,99300.59
2023-04-18T13:54:04.359Z,99288.72
2023-04-18T13:56:33.719Z,99300.72
2023-04-18T13:59:02.018Z,99296.31
2023-04-18T14:01:30.995Z,99298.84
2023-04-18T14:04:00.192Z,99293.78
2023-04-18T14:06:29.044Z,99300.34
2023-04-18T14:08:57.968Z,99300.00
2023-04-18T14:11:30.405Z,99303.50
2023-04-18T14:14:00.743Z,99300.44
2023-04-18T14:16:36.441Z,99304.00
2023-04-18T14:19:05.052Z,99308.09
2023-04-18T14:21:33.546Z,99298.66
2023-04-18T14:24:02.099Z,99313.50
2023-04-18T14:26:31.436Z,99304.81
2023-04-18T14:29:01.352Z,99301.31
2023-04-18T14:31:30.153Z,99314.28
2023-04-18T14:33:58.744Z,99318.75
2023-04-18T14:36:27.722Z,99309.69
2023-04-18T14:38:56.604Z,99314.34
2023-04-18T14:41:26.172Z,99318.81
2023-04-18T14:43:54.514Z,99310.91
2023-04-18T14:46:23.018Z,99314.50
2023-04-18T14:48:52.144Z,99319.16
2023-04-18T14:51:20.775Z,99316.25
2023-04-18T14:53:49.897Z,99307.31
2023-04-18T14:56:21.626Z,99307.47
2023-04-18T14:58:52.577Z,99317.00
2023-04-18T15:01:22.098Z,99305.94
2023-04-18T15:03:52.331Z,99302.41
2023-04-18T15:06:21.375Z,99305.72
2023-04-18T15:08:50.108Z,99314.66
2023-04-18T15:11:18.724Z,99305.84
2023-04-18T15:13:48.750Z,99313.63
2023-04-18T15:16:17.682Z,99309.78
2023-04-18T15:18:46.488Z,99302.25
2023-04-18T15:21:15.021Z,99312.00
2023-04-18T15:23:43.997Z,99313.69
2023-04-18T15:26:12.522Z,99307.63
2023-04-18T15:28:41.098Z,99317.44
2023-04-18T15:31:10.376Z,99323.69
2023-04-18T15:33:38.598Z,99314.00
2023-04-18T15:36:07.667Z,99315.56
2023-04-18T15:38:36.368Z,99307.69
2023-04-18T15:41:04.665Z,99304.44
2023-04-18T15:43:32.803Z,99304.75
2023-04-18T15:46:01.650Z,99309.88
2023-04-18T15:48:34.599Z,99312.09
2023-04-18T15:51:04.660Z,99293.81
2023-04-18T15:53:33.214Z,99301.28
2023-04-18T15:56:02.452Z,99294.63
2023-04-18T15:58:32.232Z,99311.16
2023-04-18T16:01:00.769Z,99298.16
2023-04-18T16:03:29.449Z,99291.69
2023-04-18T16:05:58.640Z,99291.56
2023-04-18T16:08:26.837Z,99287.13
2023-04-18T16:10:55.741Z,99294.88
2023-04-18T16:13:24.648Z,99290.03
2023-04-18T16:15:53.025Z,99277.91
2023-04-18T16:18:21.651Z,99273.81
2023-04-18T16:20:50.602Z,99284.63
2023-04-18T16:23:20.751Z,99271.41
2023-04-18T16:25:49.961Z,99274.38
2023-04-18T16:28:19.088Z,99272.53
2023-04-18T16:30:47.979Z,99282.88
2023-04-18T16:33:16.932Z,99272.34
2023-04-18T16:35:45.672Z,99266.06
2023-04-18T16:38:14.099Z,99272.03
2023-04-18T16:40:42.714Z,99274.50
2023-04-18T16:43:11.286Z,99259.94
2023-04-18T16:45:40.150Z,99256.50
2023-04-18T16:48:08.583Z,99260.34
2023-04-18T16:50:38.014Z,99269.09
2023-04-18T16:53:08.342Z,99256.38
2023-04-18T16:55:36.999Z,99252.09
2023-04-18T16:58:06.110Z,99233.44
2023-04-18T17:00:36.423Z,99241.59
2023-04-18T17:03:08.856Z,99234.31
2023-04-18T17:05:40.035Z,99234.28
2023-04-18T17:08:09.311Z,99235.06
2023-04-18T17:10:38.207Z,99235.38
2023-04-18T17:13:06.613Z,99247.63
2023-04-18T17:15:36.595Z,99222.72
2023-04-18T17:18:05.162Z,99249.84
2023-04-18T17:20:33.946Z,99235.72
2023-04-18T17:23:03.325Z,99229.50
2023-04-18T17:25:32.627Z,99225.41
2023-04-18T17:28:02.899Z,99227.13
2023-04-18T17:30:32.344Z,99222.75
2023-04-18T17:33:04.702Z,99228.47
2023-04-18T17:35:33.476Z,99225.47
2023-04-18T17:38:02.049Z,99218.97
2023-04-18T17:40:31.520Z,99230.09
2023-04-18T17:43:00.808Z,99230.59
2023-04-18T17:45:29.545Z,99234.94
2023-04-18T17:48:00.227Z,99239.28
2023-04-18T17:50:40.736Z,99245.53
2023-04-18T17:53:09.475Z,99226.56
2023-04-18T17:58:30.980Z,99233.34
2023-04-18T18:01:00.346Z,99236.28
2023-04-18T18:03:29.985Z,99225.50
2023-04-18T18:05:58.844Z,99226.59
2023-04-18T18:08:27.200Z,99235.00
2023-04-18T18:10:57.556Z,99235.22
2023-04-18T18:13:26.983Z,99238.78
2023-04-18T18:15:58.367Z,99232.56
2023-04-18T18:18:32.783Z,99218.16
2023-04-18T18:21:01.710Z,99234.44
2023-04-18T18:23:31.244Z,99243.94
2023-04-18T18:26:00.264Z,99239.59
2023-04-18T18:28:30.006Z,99232.56
2023-04-18T18:30:58.928Z,99230.38
2023-04-18T18:33:28.979Z,99234.72
2023-04-18T18:35:58.615Z,99235.00
2023-04-18T18:38:26.875Z,99233.91
2023-04-18T18:40:56.385Z,99221.97
2023-04-18T18:43:26.767Z,99246.09
2023-04-18T18:45:55.924Z,99253.16
2023-04-18T18:48:25.627Z,99228.75
2023-04-18T18:50:54.483Z,99225.75
2023-04-18T18:53:22.875Z,99225.78
2023-04-18T18:55:52.451Z,99227.91
2023-04-18T18:58:21.879Z,99228.19
2023-04-18T19:00:51.789Z,99233.09
2023-04-18T19:03:22.034Z,99229.03
2023-04-18T19:05:50.976Z,99243.13
2023-04-18T19:08:19.514Z,99240.69
2023-04-18T19:10:48.320Z,99230.38
2023-04-18T19:13:16.638Z,99251.53
2023-04-18T19:15:44.945Z,99249.34
2023-04-18T19:18:13.877Z,99234.72
2023-04-18T19:20:42.446Z,99250.19
2023-04-18T19:23:10.603Z,99241.22
2023-04-18T19:25:38.945Z,99242.88
2023-04-18T19:28:08.201Z,99245.84
2023-04-18T19:30:36.608Z,99238.78
2023-04-18T19:33:05.181Z,99246.38
2023-04-18T19:35:35.287Z,99250.75
2023-04-18T19:38:05.336Z,99254.28
2023-04-18T19:40:33.922Z,99262.13
2023-04-18T19:43:02.535Z,99253.41
2023-04-18T19:45:32.441Z,99242.31
2023-04-18T19:48:01.201Z,99252.63
2023-04-18T19:50:30.691Z,99242.03
2023-04-18T19:52:59.125Z,99243.69
2023-04-18T19:55:27.891Z,99237.16
2023-04-18T19:58:00.578Z,99234.44
2023-04-18T20:00:30.522Z,99236.06
2023-04-18T20:02:59.817Z,99238.25
2023-04-18T20:05:28.951Z,99244.75
2023-04-18T20:07:57.725Z,99243.13
2023-04-18T20:10:26.778Z,99232.28
2023-04-18T20:12:54.918Z,99248.56
2023-04-18T20:15:24.266Z,99250.44
2023-04-18T20:17:52.442Z,99243.66
2023-04-18T20:20:21.400Z,99254.00
2023-04-18T20:22:50.349Z,99245.56
2023-04-18T20:25:18.653Z,99251.22
2023-04-18T20:27:46.864Z,99252.00
2023-04-18T20:30:16.812Z,99252.25
2023-04-18T20:32:45.859Z,99263.91
2023-04-18T20:35:14.347Z,99260.50
2023-04-18T20:37:43.540Z,99259.94
2023-04-18T20:44:22.547Z,99265.53
2023-04-18T20:46:53.952Z,99256.56
2023-04-18T20:49:22.599Z,99246.56
2023-04-18T20:52:26.808Z,99267.00
2023-04-18T20:59:06.163Z,99261.81
2023-04-18T21:01:36.172Z,99274.91
2023-04-18T21:04:07.198Z,99263.47
2023-04-18T21:06:37.476Z,99263.19
2023-04-18T21:09:07.026Z,99270.78
2023-04-18T21:11:35.983Z,99277.56
2023-04-18T21:14:07.063Z,99278.63
2023-04-18T21:16:38.046Z,99286.75
2023-04-18T21:19:09.040Z,99285.44
2023-04-18T21:21:37.841Z,99292.72
2023-04-18T21:24:07.178Z,99295.94
2023-04-18T21:29:55.240Z,99301.06
2023-04-18T21:33:07.219Z,99303.59
2023-04-18T21:35:36.553Z,99304.63
2023-04-18T21:38:11.047Z,99326.28
2023-04-18T21:40:40.300Z,99307.28
2023-04-18T21:43:08.868Z,99315.66
2023-04-18T21:45:37.332Z,99334.88
2023-04-18T21:48:30.024Z,99320.13
2023-04-18T21:51:30.968Z,99312.97
2023-04-18T21:54:02.178Z,99316.16
2023-04-18T21:56:32.431Z,99321.03
2023-04-18T21:59:19.029Z,99312.28
2023-04-18T22:01:47.650Z,99327.81
2023-04-18T22:04:16.831Z,99327.28
2023-04-18T22:06:46.570Z,99333.22
2023-04-18T22:09:26.196Z,99345.44
2023-04-18T22:12:16.969Z,99341.38
2023-04-18T22:14:48.802Z,99356.88
2023-04-18T22:17:17.262Z,99359.03
2023-04-18T22:19:47.678Z,99354.69
2023-04-18T22:22:20.630Z,99342.06
2023-04-18T22:24:49.098Z,99358.78
2023-04-18T22:27:18.559Z,99367.41
2023-04-18T22:29:47.016Z,99367.41
2023-04-18T22:32:15.560Z,99375.00
2023-04-18T22:34:45.664Z,99379.59
2023-04-18T22:37:14.446Z,99375.78
2023-04-18T22:39:42.882Z,99374.06
2023-04-18T22:42:15.155Z,99372.91
2023-04-18T22:44:44.767Z,99374.69
2023-04-18T22:47:29.169Z,99385.13
2023-04-18T22:49:58.530Z,99383.66
2023-04-18T22:52:27.266Z,99389.97
2023-04-18T22:54:59.155Z,99386.69
2023-04-18T22:57:29.411Z,99401.00
2023-04-18T22:59:58.397Z,99384.16
2023-04-18T23:02:27.623Z,99404.94
2023-04-18T23:05:00.236Z,99408.44
2023-04-18T23:11:02.203Z,99406.56
2023-04-18T23:13:31.889Z,99409.50
2023-04-18T23:16:01.295Z,99412.91
2023-04-18T23:18:31.076Z,99421.97
2023-04-18T23:21:01.782Z,99434.78
2023-04-18T23:23:31.384Z,99436.53
2023-04-18T23:26:01.120Z,99440.31
2023-04-18T23:28:30.436Z,99447.38
2023-04-18T23:30:59.032Z,99471.97
2023-04-18T23:33:27.704Z,99484.56
2023-04-18T23:35:57.029Z,99490.94
2023-04-18T23:38:28.873Z,99495.97
2023-04-18T23:40:57.897Z,99501.09
2023-04-18T23:43:26.852Z,99503.69
2023-04-18T23:45:56.597Z,99509.34
2023-04-18T23:48:24.948Z,99509.81
2023-04-18T23:50:53.824Z,99516.47
2023-04-18T23:53:23.394Z,99522.38
2023-04-18T23:55:55.412Z,99527.63
2023-04-18T23:58:24.174Z,99539.81
